createdAt,value
2022-12-11T00:02:46.126Z,5.20
2022-12-11T00:05:47.777Z,5.25
2022-12-11T00:08:54.085Z,5.80
2022-12-11T00:11:55.733Z,5.45
2022-12-11T00:14:57.602Z,6.35
2022-12-11T00:17:59.221Z,6.00
2022-12-11T00:21:02.410Z,6.03
2022-12-11T00:24:04.361Z,5.65
2022-12-11T00:27:05.968Z,5.18
2022-12-11T00:30:08.042Z,4.87
2022-12-11T00:33:10.675Z,4.65
2022-12-11T00:36:31.116Z,4.72
2022-12-11T00:39:32.726Z,4.55
2022-12-11T00:42:34.533Z,4.05
2022-12-11T00:45:37.948Z,3.83
2022-12-11T00:48:40.043Z,3.15
2022-12-11T00:51:41.723Z,3.08
2022-12-11T00:54:43.400Z,3.08
2022-12-11T00:57:44.996Z,3.00
2022-12-11T01:00:48.353Z,2.87
2022-12-11T01:03:50.898Z,3.15
2022-12-11T01:06:52.561Z,2.97
2022-12-11T01:10:12.636Z,3.30
2022-12-11T01:13:14.536Z,3.17
2022-12-11T01:16:16.439Z,3.03
2022-12-11T01:19:18.086Z,2.58
2022-12-11T01:22:19.727Z,2.37
2022-12-11T01:25:21.777Z,2.33
2022-12-11T01:28:23.432Z,2.10
2022-12-11T01:31:28.261Z,1.83
2022-12-11T01:34:30.976Z,2.55
2022-12-11T01:37:32.832Z,2.10
2022-12-11T01:40:34.422Z,2.30
2022-12-11T01:43:55.929Z,2.30
2022-12-11T01:46:58.379Z,2.30
2022-12-11T01:50:00.138Z,2.00
2022-12-11T01:53:04.218Z,2.05
2022-12-11T01:56:08.268Z,2.35
2022-12-11T01:59:11.202Z,1.95
2022-12-11T02:02:20.976Z,1.67
2022-12-11T02:05:22.808Z,1.80
2022-12-11T02:08:24.459Z,2.00
2022-12-11T02:11:56.926Z,1.35
2022-12-11T02:15:07.908Z,1.70
2022-12-11T02:18:28.603Z,1.75
2022-12-11T02:21:41.875Z,1.70
2022-12-11T02:24:58.007Z,1.70
2022-12-11T02:28:20.447Z,1.70
2022-12-11T02:31:55.990Z,1.50
2022-12-11T02:35:09.767Z,1.60
2022-12-11T02:38:27.816Z,1.58
2022-12-11T02:41:31.533Z,1.85
2022-12-11T02:44:35.578Z,1.33
2022-12-11T02:47:39.167Z,1.80
2022-12-11T02:50:47.474Z,1.70
2022-12-11T02:53:51.691Z,1.75
2022-12-11T02:57:04.801Z,1.90
2022-12-11T03:00:08.657Z,2.10
2022-12-11T03:03:10.283Z,1.80
2022-12-11T03:06:18.440Z,1.30
2022-12-11T03:09:21.018Z,2.15
2022-12-11T03:12:32.812Z,1.90
2022-12-11T03:15:46.940Z,1.90
2022-12-11T03:19:03.879Z,1.83
2022-12-11T03:22:34.052Z,1.35
2022-12-11T03:25:47.080Z,1.33
2022-12-11T03:29:02.794Z,1.20
2022-12-11T03:32:09.546Z,1.15
2022-12-11T03:35:44.950Z,1.20
2022-12-11T03:38:51.025Z,1.27
2022-12-11T03:41:54.844Z,1.20
2022-12-11T03:44:59.271Z,1.15
2022-12-11T03:48:02.786Z,1.05
2022-12-11T03:51:07.616Z,1.33
2022-12-11T03:54:11.192Z,1.02
2022-12-11T03:57:16.653Z,0.90
2022-12-11T04:00:20.198Z,1.80
2022-12-11T04:03:21.893Z,1.62
2022-12-11T04:06:23.509Z,1.75
2022-12-11T04:09:25.134Z,2.03
2022-12-11T04:12:26.879Z,1.33
2022-12-11T04:15:28.527Z,1.25
2022-12-11T04:18:48.669Z,1.60
2022-12-11T04:22:09.240Z,1.10
2022-12-11T04:25:11.200Z,0.93
2022-12-11T04:28:13.110Z,1.00
2022-12-11T04:31:21.277Z,1.08
2022-12-11T04:34:23.271Z,2.08
2022-12-11T04:37:24.914Z,2.90
2022-12-11T04:40:26.616Z,3.40
2022-12-11T04:43:29.003Z,0.98
2022-12-11T04:46:31.259Z,0.80
2022-12-11T04:49:32.930Z,0.70
2022-12-11T04:52:34.562Z,0.80
2022-12-11T04:55:36.148Z,0.82
2022-12-11T04:58:38.086Z,0.70
2022-12-11T05:01:39.730Z,1.10
2022-12-11T05:04:41.524Z,1.10
2022-12-11T05:07:43.631Z,1.58
2022-12-11T05:10:49.998Z,1.02
2022-12-11T05:13:52.081Z,0.95
2022-12-11T05:16:53.702Z,0.90
2022-12-11T05:19:55.395Z,0.82
2022-12-11T05:22:56.988Z,1.00
2022-12-11T05:26:01.079Z,1.20
2022-12-11T05:29:02.720Z,1.45
2022-12-11T05:32:04.915Z,1.60
2022-12-11T05:35:06.843Z,1.55
2022-12-11T05:38:08.432Z,2.03
2022-12-11T05:41:13.741Z,1.87
2022-12-11T05:44:15.357Z,1.70
2022-12-11T05:47:16.984Z,1.87
2022-12-11T05:50:18.572Z,2.17
2022-12-11T05:53:20.175Z,2.40
2022-12-11T05:56:26.432Z,3.00
2022-12-11T05:59:28.054Z,2.35
2022-12-11T06:02:29.801Z,2.37
2022-12-11T06:05:31.436Z,2.15
2022-12-11T06:08:33.807Z,2.30
2022-12-11T06:11:36.169Z,2.05
2022-12-11T06:14:37.789Z,2.05
2022-12-11T06:17:39.365Z,2.30
2022-12-11T06:20:41.004Z,2.50
2022-12-11T06:23:43.584Z,2.33
2022-12-11T06:26:45.273Z,2.40
2022-12-11T06:29:46.872Z,2.10
2022-12-11T06:32:48.532Z,3.47
2022-12-11T06:35:50.189Z,3.08
2022-12-11T06:38:52.584Z,3.20
2022-12-11T06:41:54.367Z,2.85
2022-12-11T06:44:57.482Z,2.50
2022-12-11T06:47:59.131Z,2.55
2022-12-11T06:51:05.706Z,2.65
2022-12-11T06:54:07.336Z,3.20
2022-12-11T06:57:09.835Z,3.75
2022-12-11T07:00:11.999Z,3.90
2022-12-11T07:03:13.834Z,2.25
2022-12-11T07:06:15.879Z,2.62
2022-12-11T07:09:17.498Z,3.20
2022-12-11T07:12:19.136Z,4.45
2022-12-11T07:15:20.880Z,2.70
2022-12-11T07:18:22.491Z,2.70
2022-12-11T07:21:24.598Z,2.28
2022-12-11T07:24:26.330Z,2.40
2022-12-11T07:27:28.496Z,2.62
2022-12-11T07:30:30.681Z,4.53
2022-12-11T07:33:32.373Z,4.15
2022-12-11T07:36:35.193Z,3.47
2022-12-11T07:39:36.944Z,2.80
2022-12-11T07:42:42.911Z,2.37
2022-12-11T07:45:47.831Z,2.67
2022-12-11T07:48:49.750Z,2.58
2022-12-11T07:51:51.370Z,2.42
2022-12-11T07:54:53.028Z,2.30
2022-12-11T07:57:54.633Z,2.70
2022-12-11T08:00:56.345Z,2.85
2022-12-11T08:03:58.477Z,2.60
2022-12-11T08:07:00.132Z,3.83
2022-12-11T08:10:02.419Z,3.22
2022-12-11T08:13:04.043Z,4.45
2022-12-11T08:16:07.782Z,7.62
2022-12-11T08:19:10.794Z,5.22
2022-12-11T08:22:13.335Z,3.67
2022-12-11T08:25:14.959Z,3.62
2022-12-11T08:28:16.610Z,3.08
2022-12-11T08:31:18.759Z,3.00
2022-12-11T08:34:20.410Z,3.33
2022-12-11T08:37:22.026Z,3.33
2022-12-11T08:40:23.855Z,2.67
2022-12-11T08:43:25.910Z,2.95
2022-12-11T08:46:30.524Z,3.20
2022-12-11T08:49:34.637Z,3.42
2022-12-11T08:52:36.456Z,3.03
2022-12-11T08:55:38.109Z,3.35
2022-12-11T08:58:39.854Z,2.80
2022-12-11T09:01:42.013Z,2.53
2022-12-11T09:04:43.659Z,3.35
2022-12-11T09:07:45.688Z,3.15
2022-12-11T09:10:47.389Z,2.97
2022-12-11T09:13:49.454Z,2.80
2022-12-11T09:16:51.066Z,3.15
2022-12-11T09:19:52.701Z,2.87
2022-12-11T09:22:54.319Z,3.45
2022-12-11T09:25:56.081Z,3.20
2022-12-11T09:28:58.584Z,4.22
2022-12-11T09:32:00.247Z,4.45
2022-12-11T09:35:01.904Z,3.90
2022-12-11T09:38:03.628Z,3.42
2022-12-11T09:41:35.123Z,3.47
2022-12-11T09:44:51.533Z,4.75
2022-12-11T09:47:56.649Z,3.47
2022-12-11T09:50:58.357Z,3.67
2022-12-11T09:54:02.314Z,4.07
2022-12-11T09:57:19.069Z,3.50
2022-12-11T10:00:27.584Z,4.10
2022-12-11T10:03:44.580Z,4.55
2022-12-11T10:06:54.437Z,4.07
2022-12-11T10:10:01.212Z,4.80
2022-12-11T10:13:14.930Z,4.30
2022-12-11T10:16:38.464Z,4.53
2022-12-11T10:19:41.501Z,4.93
2022-12-11T10:22:44.382Z,3.70
2022-12-11T10:26:15.264Z,3.95
2022-12-11T10:29:17.221Z,4.55
2022-12-11T10:32:26.593Z,4.12
2022-12-11T10:35:39.883Z,5.72
2022-12-11T10:38:45.572Z,4.90
2022-12-11T10:41:49.955Z,4.75
2022-12-11T10:45:00.976Z,4.47
2022-12-11T10:48:09.615Z,5.85
2022-12-11T10:51:11.813Z,4.53
2022-12-11T10:54:38.274Z,4.37
2022-12-11T10:57:40.045Z,4.32
2022-12-11T11:00:42.454Z,4.45
2022-12-11T11:03:55.058Z,3.65
2022-12-11T11:07:15.220Z,3.90
2022-12-11T11:10:18.128Z,3.70
2022-12-11T11:13:22.552Z,4.22
2022-12-11T11:16:25.403Z,4.47
2022-12-11T11:19:31.108Z,4.87
2022-12-11T11:22:32.933Z,4.10
2022-12-11T11:25:34.905Z,4.00
2022-12-11T11:28:40.778Z,3.95
2022-12-11T11:31:42.540Z,3.62
2022-12-11T11:34:44.179Z,4.40
2022-12-11T11:38:07.285Z,3.67
2022-12-11T11:41:34.311Z,4.03
2022-12-11T11:44:47.671Z,3.80
2022-12-11T11:48:11.311Z,4.32
2022-12-11T11:51:15.865Z,4.00
2022-12-11T11:54:34.946Z,3.95
2022-12-11T11:57:55.227Z,3.70
2022-12-11T12:00:56.817Z,4.05
2022-12-11T12:03:59.070Z,4.68
2022-12-11T12:07:22.232Z,3.12
2022-12-11T12:10:31.960Z,3.45
2022-12-11T12:14:43.723Z,4.10
2022-12-11T12:17:42.900Z,4.30
2022-12-11T12:21:04.493Z,5.12
2022-12-11T12:24:25.381Z,6.22
2022-12-11T12:27:53.041Z,3.72
2022-12-11T12:31:29.498Z,5.20
2022-12-11T12:34:43.567Z,4.05
2022-12-11T12:37:58.695Z,3.47
2022-12-11T12:41:14.064Z,6.68
2022-12-11T12:44:18.850Z,8.95
2022-12-11T12:47:21.920Z,6.05
2022-12-11T12:50:27.224Z,6.20
2022-12-11T12:53:33.604Z,4.25
2022-12-11T12:56:37.477Z,4.50
2022-12-11T12:59:39.078Z,4.35
2022-12-11T13:02:51.723Z,4.05
2022-12-11T13:06:03.304Z,4.72
2022-12-11T13:09:23.918Z,5.22
2022-12-11T13:12:41.849Z,3.55
2022-12-11T13:15:43.971Z,4.05
2022-12-11T13:18:49.225Z,3.80
2022-12-11T13:21:56.695Z,3.95
2022-12-11T13:25:01.942Z,3.53
2022-12-11T13:28:26.157Z,3.28
2022-12-11T13:31:37.344Z,3.35
2022-12-11T13:34:45.325Z,3.45
2022-12-11T13:37:49.970Z,3.55
2022-12-11T13:40:55.759Z,3.47
2022-12-11T13:43:58.140Z,3.40
2022-12-11T13:47:03.789Z,3.80
2022-12-11T13:50:20.978Z,3.72
2022-12-11T13:53:23.972Z,3.40
2022-12-11T13:56:25.866Z,3.45
2022-12-11T13:59:34.300Z,3.45
2022-12-11T14:02:42.649Z,3.85
2022-12-11T14:05:44.642Z,4.90
2022-12-11T14:08:50.206Z,4.18
2022-12-11T14:11:56.754Z,4.65
2022-12-11T14:15:02.381Z,5.37
2022-12-11T14:18:05.601Z,9.50
2022-12-11T14:21:07.521Z,5.47
2022-12-11T14:24:14.315Z,5.20
2022-12-11T14:27:18.776Z,5.43
2022-12-11T14:30:26.247Z,4.07
2022-12-11T14:33:41.102Z,4.40
2022-12-11T14:36:46.790Z,3.60
2022-12-11T14:40:16.071Z,3.45
2022-12-11T14:43:30.682Z,3.55
2022-12-11T14:46:45.681Z,5.47
2022-12-11T14:49:47.227Z,6.40
2022-12-11T14:53:02.874Z,7.53
2022-12-11T14:56:16.347Z,7.82
2022-12-11T14:59:26.900Z,5.93
2022-12-11T15:02:33.724Z,6.18
2022-12-11T15:05:40.581Z,7.57
2022-12-11T15:08:42.737Z,7.85
2022-12-11T15:11:45.335Z,7.72
2022-12-11T15:15:00.939Z,6.22
2022-12-11T15:18:07.862Z,10.60
2022-12-11T15:21:12.266Z,9.27
2022-12-11T15:24:28.419Z,7.18
2022-12-11T15:27:40.181Z,8.18
2022-12-11T15:30:42.064Z,7.05
2022-12-11T15:33:50.285Z,7.30
2022-12-11T15:36:51.999Z,6.80
2022-12-11T15:39:55.239Z,7.15
2022-12-11T15:42:58.351Z,6.20
2022-12-11T15:46:02.670Z,5.90
2022-12-11T15:49:12.720Z,6.65
2022-12-11T15:52:14.466Z,5.20
2022-12-11T15:55:16.641Z,5.32
2022-12-11T15:58:24.455Z,4.95
2022-12-11T16:01:26.541Z,5.60
2022-12-11T16:04:28.804Z,5.25
2022-12-11T16:07:30.621Z,7.93
2022-12-11T16:10:32.690Z,8.13
2022-12-11T16:13:34.759Z,6.85
2022-12-11T16:16:36.456Z,5.90
2022-12-11T16:19:38.476Z,6.60
2022-12-11T16:22:40.411Z,5.85
2022-12-11T16:25:45.834Z,5.82
2022-12-11T16:28:48.184Z,6.28
2022-12-11T16:31:50.461Z,6.20
2022-12-11T16:34:52.690Z,6.15
2022-12-11T16:37:55.319Z,5.87
2022-12-11T16:41:01.382Z,6.60
2022-12-11T16:44:03.776Z,7.57
2022-12-11T16:47:05.548Z,11.25
2022-12-11T16:50:08.175Z,8.15
2022-12-11T16:53:10.236Z,11.38
2022-12-11T16:56:11.987Z,8.80
2022-12-11T16:59:15.240Z,8.20
2022-12-11T17:02:18.029Z,15.10
2022-12-11T17:05:20.797Z,15.50
2022-12-11T17:08:22.860Z,15.02
2022-12-11T17:11:29.492Z,11.73
2022-12-11T17:14:34.150Z,8.03
2022-12-11T17:17:36.224Z,10.98
2022-12-11T17:20:42.168Z,9.30
2022-12-11T17:23:45.162Z,9.30
2022-12-11T17:26:48.569Z,10.23
2022-12-11T17:29:50.878Z,9.30
2022-12-11T17:32:52.841Z,8.75
2022-12-11T17:35:55.073Z,9.15
2022-12-11T17:38:57.501Z,11.52
2022-12-11T17:41:59.807Z,11.60
2022-12-11T17:45:04.077Z,12.27
2022-12-11T17:48:06.285Z,10.27
2022-12-11T17:51:11.757Z,8.88
2022-12-11T17:54:14.325Z,8.20
2022-12-11T17:57:16.077Z,8.65
2022-12-11T18:00:18.272Z,9.43
2022-12-11T18:03:20.983Z,7.95
2022-12-11T18:06:24.558Z,9.35
2022-12-11T18:09:26.213Z,8.88
2022-12-11T18:12:28.201Z,8.77
2022-12-11T18:15:31.461Z,9.20
2022-12-11T18:18:35.582Z,7.90
2022-12-11T18:21:41.791Z,7.43
2022-12-11T18:24:44.073Z,7.10
2022-12-11T18:27:47.070Z,8.05
2022-12-11T18:30:49.397Z,7.03
2022-12-11T18:33:52.092Z,7.43
2022-12-11T18:36:54.547Z,7.62
2022-12-11T18:39:56.764Z,7.37
2022-12-11T18:42:58.904Z,7.15
2022-12-11T18:46:02.214Z,8.32
2022-12-11T18:49:04.638Z,9.77
2022-12-11T18:52:07.339Z,9.27
2022-12-11T18:55:10.212Z,10.35
2022-12-11T18:58:14.666Z,7.65
2022-12-11T19:01:24.188Z,6.87
2022-12-11T19:04:26.230Z,6.75
2022-12-11T19:07:28.750Z,6.90
2022-12-11T19:10:31.256Z,6.35
2022-12-11T19:13:34.849Z,5.93
2022-12-11T19:16:41.368Z,5.87
2022-12-11T19:19:46.685Z,6.67
2022-12-11T19:22:49.094Z,6.68
2022-12-11T19:25:51.628Z,5.85
2022-12-11T19:28:54.378Z,7.12
2022-12-11T19:31:57.337Z,7.25
2022-12-11T19:35:00.696Z,8.02
2022-12-11T19:38:02.881Z,8.48
2022-12-11T19:41:14.343Z,8.70
2022-12-11T19:44:17.532Z,8.57
2022-12-11T19:47:20.695Z,8.88
2022-12-11T19:50:23.197Z,9.07
2022-12-11T19:53:25.526Z,8.30
2022-12-11T19:56:28.301Z,9.00
2022-12-11T19:59:30.984Z,8.63
2022-12-11T20:02:33.206Z,9.45
2022-12-11T20:05:36.069Z,10.65
2022-12-11T20:08:46.297Z,11.75
2022-12-11T20:11:49.667Z,10.48
2022-12-11T20:14:53.440Z,12.00
2022-12-11T20:17:58.169Z,10.57
2022-12-11T20:21:01.320Z,11.20
2022-12-11T20:24:03.882Z,9.90
2022-12-11T20:27:08.225Z,10.10
2022-12-11T20:30:10.976Z,9.48
2022-12-11T20:33:13.249Z,11.25
2022-12-11T20:36:17.485Z,10.00
2022-12-11T20:39:20.216Z,9.15
2022-12-11T20:42:23.369Z,8.77
2022-12-11T20:45:25.852Z,7.80
2022-12-11T20:48:28.269Z,8.65
2022-12-11T20:51:32.863Z,8.80
2022-12-11T20:54:35.209Z,8.40
2022-12-11T20:57:41.992Z,8.52
2022-12-11T21:00:48.251Z,9.88
2022-12-11T21:03:50.542Z,9.27
2022-12-11T21:07:02.428Z,8.70
2022-12-11T21:10:05.820Z,8.10
2022-12-11T21:13:07.794Z,6.95
2022-12-11T21:16:10.671Z,7.18
2022-12-11T21:19:17.053Z,8.38
2022-12-11T21:22:19.380Z,7.97
2022-12-11T21:25:21.115Z,7.60
2022-12-11T21:28:24.330Z,7.15
2022-12-11T21:31:27.653Z,8.02
2022-12-11T21:34:29.842Z,8.10
2022-12-11T21:37:31.943Z,7.90
2022-12-11T21:40:34.179Z,8.38
2022-12-11T21:43:35.792Z,8.13
2022-12-11T21:46:37.903Z,8.93
2022-12-11T21:49:39.575Z,8.38
2022-12-11T21:52:41.208Z,8.35
2022-12-11T21:55:42.873Z,7.62
2022-12-11T21:58:45.253Z,7.87
2022-12-11T22:01:47.126Z,7.15
2022-12-11T22:04:48.788Z,7.30
2022-12-11T22:07:50.481Z,6.47
2022-12-11T22:10:52.209Z,6.53
2022-12-11T22:13:54.460Z,6.40
2022-12-11T22:16:56.128Z,6.75
2022-12-11T22:19:57.785Z,6.75
2022-12-11T22:22:59.522Z,6.82
2022-12-11T22:26:01.317Z,6.53
2022-12-11T22:29:03.615Z,7.35
2022-12-11T22:32:05.362Z,6.78
2022-12-11T22:35:07.391Z,7.37
2022-12-11T22:38:09.083Z,6.50
2022-12-11T22:41:16.349Z,7.40
2022-12-11T22:44:22.209Z,6.90
2022-12-11T22:47:23.947Z,7.12
2022-12-11T22:50:25.550Z,7.50
2022-12-11T22:53:27.170Z,7.45
2022-12-11T22:56:28.827Z,7.32
2022-12-11T22:59:30.432Z,7.05
2022-12-11T23:02:32.075Z,7.78
2022-12-11T23:05:33.720Z,8.00
2022-12-11T23:08:35.759Z,7.43
2022-12-11T23:11:38.460Z,6.68
2022-12-11T23:14:40.124Z,7.60
2022-12-11T23:17:41.768Z,8.75
2022-12-11T23:20:43.723Z,7.93
2022-12-11T23:23:45.574Z,8.88
2022-12-11T23:26:48.180Z,8.15
2022-12-11T23:29:49.890Z,7.47
2022-12-11T23:32:51.497Z,8.57
2022-12-11T23:35:53.131Z,8.50
2022-12-11T23:38:55.292Z,8.90
2022-12-11T23:41:57.122Z,8.98
2022-12-11T23:44:58.787Z,9.80
2022-12-11T23:48:00.461Z,9.32
2022-12-11T23:51:04.364Z,9.88
2022-12-11T23:54:05.997Z,9.70
2022-12-11T23:57:07.601Z,10.10
